View Sortable Currents For Network
ASOSCoCoRaHSCOOPCellular COOPDCPISU Soil Moisture
OtherSCANMy FavoritesBy StateRWISRWIS Surface
RWIS TrafficRWIS SoilBy NWS WFOUSCRN

Current SCAN Conditions

Sorted by: (Station ID)     Click on a column to sort it. Timestamps are in the local station's timezone.
ADD: Station: Ob Time Temps °F   Wind [knots]  
Air (Hi / Lo) DewP Feels RH% Speed Direction Gust @Time Solar Rad
LindsayApr-23-2024 07:00 PM 59(61/35) 20 59 22 26
Orchard Range SiteApr-23-2024 07:00 PM 71(71/28) 25 71 18 10
Table MountainApr-23-2024 07:00 PM 58(60/27) 17 58 20 11
Rodgers FarmApr-23-2024 08:00 PM 61(70/48) 31 61 32 26
Crescent Lake No1Apr-23-2024 08:00 PM 52(60/44) 36 52 54 24
Wabeno #1Apr-23-2024 08:00 PM 34(61/34) 25 68 10
MasonApr-23-2024 08:00 PM 58(62/51) 50 58 75 12
Princeton #1Apr-23-2024 08:00 PM 67(71/46) 45 67 45 21
Bushland #1Apr-23-2024 08:00 PM 70(76/50) 48 70 46 25
Tidewater #1Apr-23-2024 09:00 PM 57(70/38) 45 57 65 10
Wakulla #1Apr-23-2024 09:00 PM 60(75/45) 51 60 73 7
Geneva #1Apr-23-2024 09:00 PM 52(68/40) 46 52 80 15
Sellers Lake #1Apr-23-2024 09:00 PM 61(74/47) 54 61 78 15
Watkinsville #1Apr-23-2024 08:00 PM 66(71/40) 45 66 47 14
Molly Caren #1Apr-23-2024 08:00 PM (/) 1.7G6.7308253
Adams Ranch #1Apr-23-2024 07:00 PM 76(79/60) 20 76 12 16
Prairie View #1Apr-23-2024 08:00 PM 71(75/53) 65 71 80 15
Nunn #1Apr-23-2024 07:00 PM 55(59/36) 31 55 39 26
Torrington #1Apr-23-2024 07:00 PM 60(63/28) 20 60 21 17
Fort Assiniboine #1Apr-23-2024 07:00 PM 63(64/35) 18 63 17 12
Mandan #1Apr-23-2024 09:00 PM 55(59/37) 20 55 25 24
Lind #1Apr-23-2024 06:00 PM 68(68/36) 26 68 21 15
Fort Reno #1Apr-23-2024 08:00 PM 71(81/55) 55 71 56 25
Goodwin Ck PastureApr-23-2024 08:00 PM 64(75/39) 48 64 56 16
Goodwin Ck TimberApr-23-2024 08:00 PM 65(77/40) 45 65 48 11
Walnut Gulch #1Apr-23-2024 10:00 AM 75(75/52) 28 75 17 15
Little RiverApr-23-2024 09:00 PM 61(74/47) 50 61 67 12
Mahantango CkApr-23-2024 09:00 PM 61(68/33) 35 61 38 22
Uapb-Lonoke FarmApr-23-2024 08:00 PM 71(77/50) 56 71 58 21
AmesApr-23-2024 08:00 PM 60(67/46) 33 60 36 34
Beasley LakeApr-23-2024 08:00 PM 68(75/48) 50 68 52 21
OnwardApr-23-2024 08:00 PM 69(75/47) 48 69 46 17
TunicaApr-23-2024 08:00 PM 69(75/47) 47 69 45 23
VanceApr-23-2024 08:00 PM 70(75/48) 45 70 41 18
Rock Springs PaApr-23-2024 09:00 PM 57(67/31) 36 57 46 25
Pee DeeApr-23-2024 09:00 PM 59(72/38) 44 59 57 13
Youmans FarmApr-23-2024 09:00 PM 61(73/40) 45 61 56 12
N Piedmont ArecApr-23-2024 09:00 PM 64(72/35) 35 64 33 18
Mount MansfieldApr-23-2024 09:00 PM 52(60/32) 26 52 36
Lye BrookApr-23-2024 09:00 PM 48(60/29) 25 41
Mascoma RiverApr-23-2024 09:00 PM 51(65/26) 28 51 42
PerthshireApr-23-2024 08:00 PM 70(75/47) 48 70 45 22
SpickardApr-23-2024 08:00 PM 63(71/52) 35 63 35 22
DexterApr-23-2024 08:00 PM 69(74/45) 51 69 51 19
Powder MillApr-23-2024 09:00 PM 59(71/32) 44 59 58 13
Glacial RidgeApr-23-2024 08:00 PM 50(57/41) 21 50 31 22
Everglades ARSApr-23-2024 09:00 PM 70(82/66) 60 70 70 17
WtarsApr-23-2024 08:00 PM 64(73/39) 44 64 49 19
HodgesApr-23-2024 08:00 PM 61(74/35) 47 61 61 18
Stanley FarmApr-23-2024 08:00 PM 59(73/36) 47 59 64 14
AAMU-JTGApr-23-2024 08:00 PM 63(75/38) 43 63 48 11
Mt VernonApr-19-2024 04:00 AM 48(52/48) 41 76 17
Powell GardensApr-23-2024 08:00 PM 64(77/54) 31 64 28 8
StarkvilleApr-23-2024 08:00 PM 67(76/42) 45 67 46 15
Bosque SecoApr-23-2024 08:00 PM 77(89/73) 71 77 81
SHAGBARK HILLSApr-23-2024 08:00 PM 60(64/51) 31 60 33 26
Hubbard BrookApr-23-2024 09:00 PM 46(63/33) 29 51 8
ScottApr-23-2024 07:00 PM 73(75/48) 45 73 37 19
Eros Data CenterApr-23-2024 08:00 PM 57(62/44) 36 57 45 30
McAllister FarmApr-23-2024 08:00 PM 63(71/39) 42 63 46 16
Allen FarmsApr-23-2024 08:00 PM 67(74/36) 41 67 38 15
Eastview FarmApr-23-2024 08:00 PM 64(72/39) 40 64 41 15
Bragg FarmApr-23-2024 08:00 PM 67(74/39) 39 67 36 16
Mammoth CaveApr-23-2024 08:00 PM 67(71/46) 40 67 37 16
Tnc Fort BayouApr-23-2024 08:00 PM 61(73/41) 56 61 83
Uapb Campus-PBApr-23-2024 08:00 PM 71(77/48) 50 71 48 18
Uapb-MariannaApr-23-2024 08:00 PM 68(75/50) 49 68 52 16
Uapb-EarleApr-23-2024 08:00 PM 70(75/50) 45 70 41 18
Silver CityApr-23-2024 08:00 PM 69(75/48) 50 69 52 16
North IssaquenaApr-23-2024 08:00 PM 67(75/46) 48 67 51 19
ShenandoahApr-23-2024 09:00 PM 61(67/32) 37 61 40 19
Reynolds HomesteadApr-23-2024 09:00 PM 62(70/34) 40 62 44 14
Uapb Point RemoveApr-23-2024 08:00 PM 74(80/44) 55 74 51 12
Uapb DewittApr-23-2024 08:00 PM 69(75/49) 49 69 48 20
AbramsApr-23-2024 08:00 PM 65(75/53) 45 65 49 19
PhillipsburgApr-23-2024 08:00 PM 62(71/53) 30 62 30 24
Centralia LakeApr-23-2024 08:00 PM 61(73/54) 31 61 32 24
KainaliuApr-23-2024 03:00 PM 74(74/66) 68 74 81 6
KukuihaeleApr-23-2024 03:00 PM 71(71/66) 68 71 89 17
Waimea PlainApr-23-2024 03:00 PM 62(66/59) 62 62 100 20
Silver SwordApr-23-2024 03:00 PM 54(57/42) 44 54 70 16
Mana HouseApr-23-2024 03:00 PM 60(63/52) 60 60 100 16
Reese CenterApr-23-2024 08:00 PM 79(90/53) 43 79 28 22
LevellandApr-23-2024 08:00 PM 80(93/52) 42 80 26 23
LehmanApr-23-2024 08:00 PM 80(89/52) 40 80 24 21
CrossroadsApr-23-2024 07:00 PM 81(90/50) 41 79 24 27
Willow WellsApr-23-2024 07:00 PM 85(88/50) 23 82 10 19
Sandy RidgeApr-23-2024 08:00 PM 69(74/48) 45 69 42 20
MaydayApr-23-2024 08:00 PM 71(76/46) 48 71 44 20
Johnson FarmApr-23-2024 07:00 PM 62(67/34) 24 62 23 20
Cullman-NAHRCApr-23-2024 08:00 PM 65(74/35) 43 65 45 15
Livingston-UWAApr-23-2024 08:00 PM 64(76/40) 50 64 61 9
TuskegeeApr-23-2024 08:00 PM 60(74/41) 50 60 70 13
Lovelock NNRApr-23-2024 06:00 PM 70(77/51) 39 70 32 19
Conrad Ag RcApr-23-2024 07:00 PM 59(62/35) 10 59 14 21
ViolettApr-23-2024 07:00 PM 62(64/33) 15 62 16 16
MoccasinApr-23-2024 07:00 PM 58(59/27) 15 58 18 18
SidneyApr-23-2024 06:00 PM 61(61/32) 21 61 21 16
JordanApr-23-2024 06:00 PM 63(64/29) 16 63 16 15
CirclevilleApr-23-2024 07:00 PM 70(75/34) 30 70 23 19
EphraimApr-23-2024 07:00 PM 73(76/41) 29 73 19 16
HoldenApr-23-2024 07:00 PM 73(78/42) 30 73 20 21
EnterpriseApr-23-2024 07:00 PM (73/42) 25
MilfordApr-23-2024 07:00 PM 75(79/38) 25 75 16 23
EastlandApr-23-2024 07:00 PM 69(72/44) 21 69 16 26
Green RiverApr-23-2024 07:00 PM 79(83/48) 24 79 13 23
PriceApr-23-2024 07:00 PM 75(77/50) 21 75 13 20
MorganApr-23-2024 07:00 PM 69(72/38) 34 69 28 13
Mountain HomeApr-23-2024 07:00 PM 65(67/46) 24 65 21 25
Blue CreekApr-23-2024 07:00 PM 65(66/45) 30 65 26 12
Cache JunctionApr-23-2024 07:00 PM 69(69/34) 39 69 34 11
NephiApr-23-2024 07:00 PM 74(76/42) 25 74 16 21
Alkali MesaApr-23-2024 07:00 PM 71(75/54) 21 71 15 19
West SummitApr-23-2024 07:00 PM 68(74/46) 18 68 15 23
Mccracken MesaApr-23-2024 07:00 PM 78(80/50) 21 78 12 22
Kyle CanyonApr-23-2024 06:00 PM 59(66/48) 20 59 22 11
Trough SpringsApr-23-2024 06:00 PM 58(64/43) 20 58 23 7
Pine NutApr-23-2024 06:00 PM 63(68/51) 21 63 20 14
CharkilnApr-23-2024 06:00 PM 62(66/36) 20 62 20
Lovell SummitApr-23-2024 06:00 PM 63(68/42) 19 63 18
Ku-NesaApr-23-2024 08:00 PM 65(74/56) 31 65 28 16
Jordan Valley CwmaApr-23-2024 06:00 PM 71(71/30) 30 71 22 10
Marble CreekApr-23-2024 06:00 PM 71(72/50) 24 71 17 14
Chicken RidgeApr-23-2024 07:00 PM 57(59/41) 29 57 34 18
Buffalo JumpApr-23-2024 07:00 PM 62(66/34) 29 62 28 19
GrantsvilleApr-23-2024 07:00 PM 67(70/48) 35 67 31 12
Park ValleyApr-23-2024 07:00 PM 65(66/35) 34 65 32 11
Split MountainApr-23-2024 07:00 PM 73(77/53) 32 73 22 31
Little Red FoxApr-23-2024 07:00 PM 74(78/48) 25 74 16 18
ManderfieldApr-23-2024 07:00 PM 68(71/37) 26 68 20 21
PanguitchApr-23-2024 07:00 PM 69(73/25) 23 69 18 25
SpookyApr-23-2024 07:00 PM 76(77/50) 22 76 13 23
Sand HollowApr-23-2024 07:00 PM 84(87/58) 24 81 11 18
Grouse CreekApr-23-2024 07:00 PM 66(66/32) 31 66 27 16
Cave ValleyApr-23-2024 07:00 PM 68(71/36) 23 68 18 20
VermillionApr-23-2024 07:00 PM 70(72/43) 15 70 12 17
Tule ValleyApr-23-2024 07:00 PM 81(81/49) 22 79 11 17
Hals CanyonApr-23-2024 07:00 PM 74(78/45) 20 74 13 21
GoshuteApr-23-2024 07:00 PM 67(71/37) 29 67 24 17
Harms WayApr-23-2024 07:00 PM 67(71/45) 18 67 15 31
DugwayApr-23-2024 07:00 PM 73(78/43) 32 73 22 15
Jornada Exp RangeApr-23-2024 07:00 PM 84(88/57) 22 81 10 24
Los Lunas PMCApr-23-2024 07:00 PM 81(84/49) 23 79 12 22
SevilletaApr-23-2024 07:00 PM 81(84/49) 23
AlcaldeApr-23-2024 07:00 PM 77(82/37) 21 77 12 15
Isbell FarmsApr-23-2024 08:00 PM 66(75/39) 40 66 39 17
Dee River RanchApr-23-2024 08:00 PM 67(76/42) 46 67 46 19
WedoweeApr-23-2024 08:00 PM 63(72/37) 42 63 47 16
SelmaApr-23-2024 08:00 PM 62(76/41) 53 62 72 13
Broad AcresApr-23-2024 08:00 PM 66(77/42) 49 66 54 17
Morris FarmsApr-23-2024 08:00 PM 59(75/40) 50 59 71 12
Sudduth FarmsApr-23-2024 08:00 PM 64(73/34) 41 64 43 17
Koptis FarmsApr-23-2024 08:00 PM 66(73/48) 57 66 74 16
Perdido Riv FarmsApr-23-2024 08:00 PM 62(75/43) 53 62 72 14
River Road FarmsApr-23-2024 08:00 PM 59(75/43) 53 59 78 10
Desert CenterApr-23-2024 06:00 PM 91(93/71) 29 86 11 15
Ford Dry LakeApr-23-2024 06:00 PM 92(93/62) 25 87 9 17
EssexApr-23-2024 06:00 PM 82(86/63) 15 79 8 20
Shadow MtnsApr-23-2024 06:00 PM 78(78/54) 28 78 16 18
Deep SpringsApr-23-2024 06:00 PM 69(74/47) 30 69 24 19
CorozalApr-23-2024 08:00 PM 75(85/72) 73 75 91 1G2.2214120
Cochora RanchApr-23-2024 06:00 PM 65(68/43) 32 65 29 14
Death Valley JctApr-23-2024 06:00 PM 86(88/70) 23 82 10 27
Doe RidgeApr-23-2024 06:00 PM 58(67/38) 31 58 36 17
Eagle LakeApr-23-2024 06:00 PM 56(67/37) 41 56 57 9
Schell-OsageApr-23-2024 08:00 PM 62(71/54) 56 62 83 16
Journagan RanchApr-23-2024 08:00 PM 63(77/41) 53 63 70 16
CMRB LTARApr-23-2024 08:00 PM 60(67/50) 50 60 68 17
PlattevilleApr-23-2024 08:00 PM 54(65/48) 36 54 52 29
CPERApr-23-2024 07:00 PM 56(58/37) 31 56 38 24
Cook Farm Field DApr-23-2024 06:00 PM 65(65/26) 19 65 17 14
RieselApr-23-2024 08:00 PM 69(74/54) 64 69 85 18
San AngeloApr-23-2024 08:00 PM 85(90/56) 56 84 38 16
Knox CityApr-23-2024 08:00 PM 79(87/52) 64 79 60 17
VernonApr-23-2024 08:00 PM 76(84/50) 62 76 62 16
StephenvilleApr-23-2024 08:00 PM 74(78/55) 63 74 69 16
UvaldeApr-23-2024 08:00 PM 76(78/65) 64 76 66 12
WeslacoApr-23-2024 08:00 PM 78(83/66) 70 78 75 14
KingsvilleApr-23-2024 08:00 PM 76(80/64) 70 76 81 16
BeaumontApr-23-2024 08:00 PM 71(74/50) 63 71 76 15
Kanuti LakeApr-23-2024 05:00 PM 54(54/30) 3
Checkers CreekApr-23-2024 04:00 PM (/) 3.5G6.227210498
Ash ValleyApr-23-2024 06:00 PM 49(65/32) 46 89 21
Bodie HillsApr-23-2024 06:00 PM 55(60/37) 32 55 42 13
BuckhornApr-23-2024 06:00 PM 53(62/44) 38 53 56 25
Monocline RidgeApr-23-2024 06:00 PM 72(73/50) 47 72 40 14
French GulchApr-23-2024 06:00 PM 55(64/55) 49 55 79 8
StubblefieldApr-23-2024 06:00 PM 64(66/44) 37 64 37 17
Elsberry PMCApr-23-2024 08:00 PM 57(63/53) 51 57 82 9
Carver FarmApr-23-2024 08:00 PM 58(68/46) 57 58 96 14
Busby FarmApr-23-2024 08:00 PM 57(68/46) 56 57 95 8
Mark Twain HSApr-23-2024 08:00 PM 59(67/50) 51 59 76 16
Twin Pines ConservationApr-23-2024 07:00 PM 66(79/44) 53 66 62
Shaw Nature ReserveApr-23-2024 08:00 PM 54(65/53) 53 54 97 11
NacogdochesApr-23-2024 08:00 PM 72(78/49) 63 72 73 10
RubyApr-23-2024 06:00 PM 50(69/43) 43 50 75 28
LTSPApr-23-2024 08:00 PM 57(77/45) 56 57 97 7
Sinkin ForestApr-23-2024 08:00 PM 56(75/46) 56 56 100 13
MiraderoApr-23-2024 08:00 PM 75(86/75) 74 75 98 1.5G4.366100
ThoreauApr-23-2024 07:00 PM 70(74/38) 15 70 12 21
VallecitosApr-23-2024 06:00 PM 68(71/45) 48 68 48 13
AdobeApr-23-2024 05:00 PM 65(67/37) 32 65 30 11
RancheriaApr-23-2024 06:00 PM 62(67/43) 28 62 27 14
Alabama HillsApr-23-2024 06:00 PM 68(71/51) 29 68 23 19


SCAN Soil Conditions

  2 inch 4 inch 8 inch 20 inch 40 inch
Station: Ob Time: Moist:Temp: Moist:Temp: Moist:Temp: Moist:Temp: Moist:Temp:
LindsayApr-23-2024 07:00 -05:00 1355 1352 1546 1243 1542
Orchard Range SiteApr-23-2024 07:00 -05:00 569 1563 1757 1051 1050
Table MountainApr-23-2024 07:00 -05:00 564 1860 3847 2446 944
Rodgers FarmApr-23-2024 08:00 -05:00 2460 2558 3756 4751 3650
Crescent Lake No1Apr-23-2024 08:00 -05:00 1546 1545 2043 1041 740
Wabeno #1Apr-23-2024 08:00 -05:00 2345 2745 1942 1541
MasonApr-23-2024 08:00 -05:00 1457 1355 656 1653 2852
Princeton #1Apr-23-2024 08:00 -05:00 2662 2661 3061 3259 4459
Bushland #1Apr-23-2024 08:00 -05:00 1066 2162 2459 2255 2753
Tidewater #1Apr-23-2024 09:00 -05:00 2162 63 2862 3661 4061
Wakulla #1Apr-23-2024 09:00 -05:00 272 373 573 370 368
Geneva #1Apr-23-2024 09:00 -05:00 2752 3251 2952 3648 4648
Sellers Lake #1Apr-23-2024 09:00 -05:00 479 680 679 675 475
Watkinsville #1Apr-23-2024 08:00 -05:00 1764 1564 1563 1662 1562
Molly Caren #1Apr-23-2024 08:00 -05:00
Adams Ranch #1Apr-23-2024 07:00 -05:00 1274 772 1365 1357 555
Prairie View #1Apr-23-2024 08:00 -05:00 2969 2769 1769 3368 67
Nunn #1Apr-23-2024 07:00 -05:00 1859 2257 1547 1548
Torrington #1Apr-23-2024 07:00 -05:00 870 666 759 552 449
Fort Assiniboine #1Apr-23-2024 07:00 -05:00 1956 1554 3147 3344 1843
Mandan #1Apr-23-2024 09:00 -05:00 2742 3237 2635 3335 3636
Lind #1Apr-23-2024 06:00 -05:00 767 561 1454 1153 1849
Fort Reno #1Apr-23-2024 08:00 -05:00 1661 3158 3656 3957
Goodwin Ck PastureApr-23-2024 08:00 -05:00 4062 3963 3862 4160 60
Goodwin Ck TimberApr-23-2024 08:00 -05:00 2664 2965 3163 4661 61
Walnut Gulch #1Apr-23-2024 10:00 -05:00
Little RiverApr-23-2024 09:00 -05:00 1372 1074 1174 1770 3369
Mahantango CkApr-23-2024 09:00 -05:00 2456 2756 2455 2753 1152
Uapb-Lonoke FarmApr-23-2024 08:00 -05:00 3867 3165 3865 4062 4361
AmesApr-23-2024 08:00 -05:00 4750 4149 4447 5346 5245
Beasley LakeApr-23-2024 08:00 -05:00 4968 5068 5265 5963 3462
OnwardApr-23-2024 08:00 -05:00 4065 4062 4162 4162 4361
TunicaApr-23-2024 08:00 -05:00 4065 4365 4663 5562 6461
VanceApr-23-2024 08:00 -05:00
Rock Springs PaApr-23-2024 09:00 -05:00 2753 3450 3249 3248 3648
Pee DeeApr-23-2024 09:00 -05:00 1767 1967 1564 2164 2064
Youmans FarmApr-23-2024 09:00 -05:00 2072 1472 1572 3069 3868
N Piedmont ArecApr-23-2024 09:00 -05:00 2263 2663 3361 4058 4156
Mount MansfieldApr-23-2024 09:00 -05:00 3444 3242 3740 3839 3339
Lye BrookApr-23-2024 09:00 -05:00 2342 3240 3739 2838 1938
Mascoma RiverApr-23-2024 09:00 -05:00 4640 3440
PerthshireApr-23-2024 08:00 -05:00 3666 4165 4664 5962 6362
SpickardApr-23-2024 08:00 -05:00 2256 3655 3354 4052 4951
DexterApr-23-2024 08:00 -05:00 1964 1965 2363 2860 2960
Powder MillApr-23-2024 09:00 -05:00 1357 1062 958 2055 2554
Glacial RidgeApr-23-2024 08:00 -05:00 1848 2046 2143 938 1837
Everglades ARSApr-23-2024 09:00 -05:00 1078 980
WtarsApr-23-2024 08:00 -05:00 3067 3566 2064 3661 4160
HodgesApr-23-2024 08:00 -05:00 2463 3063 2561 3760 2260
Stanley FarmApr-23-2024 08:00 -05:00 2960 2768 3867 3762 4162
AAMU-JTGApr-23-2024 08:00 -05:00 64 3467 3965 4461 4559
Mt VernonApr-19-2024 04:00 -05:00 2057 858 2761 2160
Powell GardensApr-23-2024 08:00 -05:00 1566 3061 3461 3161 3957
StarkvilleApr-23-2024 08:00 -05:00 4769 4969 4967 5264 5864
Bosque SecoApr-23-2024 08:00 -05:00 2379 2480
SHAGBARK HILLSApr-23-2024 08:00 -05:00 55 55 53 49 47
Hubbard BrookApr-23-2024 09:00 -05:00 1946 3144 2743 2842 3842
ScottApr-23-2024 07:00 -05:00 4267 4466 4564 5263 3862
Eros Data CenterApr-23-2024 08:00 -05:00 3052 3452 3149 3646 3344
McAllister FarmApr-23-2024 08:00 -05:00 2765 2866 3465 3162 4061
Allen FarmsApr-23-2024 08:00 -05:00 2061 2761 3060 3260 4960
Eastview FarmApr-23-2024 08:00 -05:00 3055 3355 3454 3354 3148
Bragg FarmApr-23-2024 08:00 -05:00 2660 2659 2160 3458 3158
Mammoth CaveApr-23-2024 08:00 -05:00 3262 3262 3758 5358 4756
Tnc Fort BayouApr-23-2024 08:00 -05:00 69 2870 3270 2968 3068
Uapb Campus-PBApr-23-2024 08:00 -05:00 3469 3069 3267 3365 3863
Uapb-MariannaApr-23-2024 08:00 -05:00 3365 3965 3664 5262 5061
Uapb-EarleApr-23-2024 08:00 -05:00 3165 3264 3963 4260 4160
Silver CityApr-23-2024 08:00 -05:00 3465 3266 4364 5062 4962
North IssaquenaApr-23-2024 08:00 -05:00 5069 5868 5764 5863 5263
ShenandoahApr-23-2024 09:00 -05:00 2355 1958 2356 56 55
Reynolds HomesteadApr-23-2024 09:00 -05:00 2263 2564 3163 2460 4359
Uapb Point RemoveApr-23-2024 08:00 -05:00 2370 2669 2867 3863 3162
Uapb DewittApr-23-2024 08:00 -05:00 3767 3464 3365 4763 3162
AbramsApr-23-2024 08:00 -05:00 569 864 1463 3859 2758
PhillipsburgApr-23-2024 08:00 -05:00 1263 1356 1854 2051 1850
Centralia LakeApr-23-2024 08:00 -05:00 2256 3855 3953 4151 3951
KainaliuApr-23-2024 03:00 -05:00 72
KukuihaeleApr-23-2024 03:00 -05:00 2670 3670 4171 4871
Waimea PlainApr-23-2024 03:00 -05:00 2962 2864 2565
Silver SwordApr-23-2024 03:00 -05:00 1087 2456 854
Mana HouseApr-23-2024 03:00 -05:00 1157 1561 3362 1762
Reese CenterApr-23-2024 08:00 -05:00 1076 1278 1169 1563 2861
LevellandApr-23-2024 08:00 -05:00 780 1277 1069 1262 1259
LehmanApr-23-2024 08:00 -05:00 984 1484 1179 865 1163
CrossroadsApr-23-2024 07:00 -05:00 784 1083 872 1363 1261
Willow WellsApr-23-2024 07:00 -05:00 390 387 473 764 362
Sandy RidgeApr-23-2024 08:00 -05:00 1767 1766 2166 3763 1063
MaydayApr-23-2024 08:00 -05:00 5062 5761 60 6261 6963
Johnson FarmApr-23-2024 07:00 -05:00 1855 2353 2549 1647 1147
Cullman-NAHRCApr-23-2024 08:00 -05:00 3260 2959 2458 3457 3257
Livingston-UWAApr-23-2024 08:00 -05:00 4074 4373 4471 4767 6666
TuskegeeApr-23-2024 08:00 -05:00 1167 1167 1266 2664 4164
Lovelock NNRApr-23-2024 06:00 -05:00 1569 2665 3959
Conrad Ag RcApr-23-2024 07:00 -05:00 3056 3550 3252 3641 2342
ViolettApr-23-2024 07:00 -05:00 2063 3056 3451 644 442
MoccasinApr-23-2024 07:00 -05:00 2855 3151 3344 2542 1642
SidneyApr-23-2024 06:00 -05:00 2249 2647 3043 1441 2039
JordanApr-23-2024 06:00 -05:00 1459 3156 3548 3444 1444
CirclevilleApr-23-2024 07:00 -05:00 1069 1664 1055 850 1447
EphraimApr-23-2024 07:00 -05:00 1358 2056 2949 3547 2145
HoldenApr-23-2024 07:00 -05:00 863 965 857 1653 1150
EnterpriseApr-23-2024 07:00 -05:00 69 64 57 55 1951
MilfordApr-23-2024 07:00 -05:00 1566 2260 2256 53 50
EastlandApr-23-2024 07:00 -05:00 1462 2060 2157 3352 2148
Green RiverApr-23-2024 07:00 -05:00 1278 2076 1472 76 458
PriceApr-23-2024 07:00 -05:00 874 1769 2266 1458 753
MorganApr-23-2024 07:00 -05:00 2365 2758 1856 1849 2747
Mountain HomeApr-23-2024 07:00 -05:00 863 1957 1953 1647
Blue CreekApr-23-2024 07:00 -05:00 2459 2858 3352 3348 2445
Cache JunctionApr-23-2024 07:00 -05:00 2259 2957 4453 4048 4145
NephiApr-23-2024 07:00 -05:00 1464 1956 2153 2849 1647
Alkali MesaApr-23-2024 07:00 -05:00 1471 1371 2362 2655 1753
West SummitApr-23-2024 07:00 -05:00 1666 1961 2357 2551 1847
Mccracken MesaApr-23-2024 07:00 -05:00 1765 2263 2262 1657 754
Kyle CanyonApr-23-2024 06:00 -05:00 1073 1470 762 1452 1349
Trough SpringsApr-23-2024 06:00 -05:00 1779 1658 1951 2448 2049
Pine NutApr-23-2024 06:00 -05:00 1270 1265 1362 2053 950
CharkilnApr-23-2024 06:00 -05:00 2256 1856 2349 3747 4044
Lovell SummitApr-23-2024 06:00 -05:00 2156 2952 2549
Ku-NesaApr-23-2024 08:00 -05:00 3460 3560 3158 4954 6353
Jordan Valley CwmaApr-23-2024 06:00 -05:00 3171 3964 3955
Marble CreekApr-23-2024 06:00 -05:00 1369 1265 1265 656 1354
Chicken RidgeApr-23-2024 07:00 -05:00 1746 2144 2843 2740 3238
Buffalo JumpApr-23-2024 07:00 -05:00 1252 1851 1847 1445
GrantsvilleApr-23-2024 07:00 -05:00 167 1664 1557 54 52
Park ValleyApr-23-2024 07:00 -05:00 864 1662 753 50 51
Split MountainApr-23-2024 07:00 -05:00 972 2264 1960 1154 951
Little Red FoxApr-23-2024 07:00 -05:00 675 1862 1958 2151 1948
ManderfieldApr-23-2024 07:00 -05:00 1357 1355 2552 2150 1047
PanguitchApr-23-2024 07:00 -05:00 1557 2150 1547 1946 4044
SpookyApr-23-2024 07:00 -05:00 476 469 566 962 758
Sand HollowApr-23-2024 07:00 -05:00 194 181 174 070 466
Grouse CreekApr-23-2024 07:00 -05:00 1153 2249 2649 3046 2945
Cave ValleyApr-23-2024 07:00 -05:00 180 571 666 655 752
VermillionApr-23-2024 07:00 -05:00 069 464 1256 1451 1347
Tule ValleyApr-23-2024 07:00 -05:00 90 82 73 62 58
Hals CanyonApr-23-2024 07:00 -05:00 877 1176 765 660 453
GoshuteApr-23-2024 07:00 -05:00 1370 1265 62 53 50
Harms WayApr-23-2024 07:00 -05:00 962 1657 1855 1951 947
DugwayApr-23-2024 07:00 -05:00 71 68 62 54 50
Jornada Exp RangeApr-23-2024 07:00 -05:00 392 482 475 369 465
Los Lunas PMCApr-23-2024 07:00 -05:00
SevilletaApr-23-2024 07:00 -05:00 787 1485 1076 767 662
AlcaldeApr-23-2024 07:00 -05:00 80 67 64 63 55
Isbell FarmsApr-23-2024 08:00 -05:00 3265 4764 5363 5762 6661
Dee River RanchApr-23-2024 08:00 -05:00 65 66 64 63 63
WedoweeApr-23-2024 08:00 -05:00 2164 2663 1762 2461
SelmaApr-23-2024 08:00 -05:00 870 970 1070 1367 1367
Broad AcresApr-23-2024 08:00 -05:00 4465 4065 4464 5564 7464
Morris FarmsApr-23-2024 08:00 -05:00 3569 3768 3669 4266 4166
Sudduth FarmsApr-23-2024 08:00 -05:00 3362 3060 2860 3060 3359
Koptis FarmsApr-23-2024 08:00 -05:00 1174 1273 1572 2369
Perdido Riv FarmsApr-23-2024 08:00 -05:00 3072 3269 3668
River Road FarmsApr-23-2024 08:00 -05:00 568 668 1968 2567 4167
Desert CenterApr-23-2024 06:00 -05:00
Ford Dry LakeApr-23-2024 06:00 -05:00 5107 15106 1383 977
EssexApr-23-2024 06:00 -05:00 98 92 86 76 73
Shadow MtnsApr-23-2024 06:00 -05:00 288 1087 778 1670 1464
Deep SpringsApr-23-2024 06:00 -05:00 1179 1375 1267 1259 1454
CorozalApr-23-2024 08:00 -05:00 5780 5480 5580 5678 5279
Cochora RanchApr-23-2024 06:00 -05:00 1486 1182 1172 968 1464
Death Valley JctApr-23-2024 06:00 -05:00 592 1092 1787 2678 71
Doe RidgeApr-23-2024 06:00 -05:00 573 762 858 1054 1353
Eagle LakeApr-23-2024 06:00 -05:00 966 1166 656 952 746
Schell-OsageApr-23-2024 08:00 -05:00 2364 3464 2761 4859
Journagan RanchApr-23-2024 08:00 -05:00 54 57 55 57
CMRB LTARApr-23-2024 08:00 -05:00 2657 3257 3055 5155 4853
PlattevilleApr-23-2024 08:00 -05:00 4050 4049 3747 4045 5146
CPERApr-23-2024 07:00 -05:00 1856 1355 1852 1148 1347
Cook Farm Field DApr-23-2024 06:00 -05:00 2958 3553 3249 4146 5745
RieselApr-23-2024 08:00 -05:00 67 66 6165 4264
San AngeloApr-23-2024 08:00 -05:00 2674 1570 25
Knox CityApr-23-2024 08:00 -05:00 2376 1676 2071 2464 2062
VernonApr-23-2024 08:00 -05:00 2973 67 62 4262
StephenvilleApr-23-2024 08:00 -05:00 2973 3370 5065 3965
UvaldeApr-23-2024 08:00 -05:00
WeslacoApr-23-2024 08:00 -05:00 2879 1879 2077 2178 1878
KingsvilleApr-23-2024 08:00 -05:00
BeaumontApr-23-2024 08:00 -05:00
Kanuti LakeApr-23-2024 05:00 -05:00 032 7232 1631 1430 1830
Checkers CreekApr-23-2024 04:00 -05:00
Ash ValleyApr-23-2024 06:00 -05:00 2057 2457 3254 3252
Bodie HillsApr-23-2024 06:00 -05:00 1456 1557 1947 1342 440
BuckhornApr-23-2024 06:00 -05:00 3555 3549 3945 4642
Monocline RidgeApr-23-2024 06:00 -05:00 3492 2782 3176 3271 3367
French GulchApr-23-2024 06:00 -05:00 974 1671 1864 2657 3150
StubblefieldApr-23-2024 06:00 -05:00 1765 2062 1659 2358 1658
Elsberry PMCApr-23-2024 08:00 -05:00 4257 3657 3656 4256 5054
Carver FarmApr-23-2024 08:00 -05:00 2458 2658 2458 2957 2856
Busby FarmApr-23-2024 08:00 -05:00 2958 3257 3056 3856
Mark Twain HSApr-23-2024 08:00 -05:00 2956 3255 5358 5753
Twin Pines ConservationApr-23-2024 07:00 -05:00 1961 1860 2258 2357 2457
Shaw Nature ReserveApr-23-2024 08:00 -05:00 2760 2060 2360 4058
NacogdochesApr-23-2024 08:00 -05:00 1877 1976 2174 2971
RubyApr-23-2024 06:00 -05:00 2359 2856 3051 3746 4043
LTSPApr-23-2024 08:00 -05:00 1566 1364 1766 3060 4559
Sinkin ForestApr-23-2024 08:00 -05:00 1662 2962 1762 4559 5558
MiraderoApr-23-2024 08:00 -05:00 3482 3783 4183 4582 4482
ThoreauApr-23-2024 07:00 -05:00 71 67 62 56 53
VallecitosApr-23-2024 06:00 -05:00 1764 2460 2659 2759 2758
AdobeApr-23-2024 05:00 -05:00 066 1060 858 753 2049
RancheriaApr-23-2024 06:00 -05:00 1463 1461 1153 1348 2245
Alabama HillsApr-23-2024 06:00 -05:00 76 61